createdAt,value
2022-12-18T00:02:17.794Z,102120.69
2022-12-18T00:04:43.982Z,102124.81
2022-12-18T00:07:10.141Z,102109.91
2022-12-18T00:09:39.468Z,102112.13
2022-12-18T00:14:41.990Z,102116.63
2022-12-18T00:17:08.176Z,102117.34
2022-12-18T00:19:35.372Z,102123.31
2022-12-18T00:22:01.545Z,102132.56
2022-12-18T00:24:27.653Z,102127.78
2022-12-18T00:26:53.873Z,102126.63
2022-12-18T00:29:20.057Z,102119.00
2022-12-18T00:31:46.266Z,102115.69
2022-12-18T00:34:12.457Z,102110.19
2022-12-18T00:36:38.621Z,102114.34
2022-12-18T00:39:04.753Z,102114.66
2022-12-18T00:41:31.002Z,102116.00
2022-12-18T00:43:57.163Z,102118.59
2022-12-18T00:46:23.311Z,102112.59
2022-12-18T00:48:49.418Z,102117.81
2022-12-18T00:51:15.581Z,102126.50
2022-12-18T00:53:41.838Z,102134.03
2022-12-18T00:56:08.020Z,102129.22
2022-12-18T00:58:34.158Z,102126.63
2022-12-18T01:01:00.411Z,102133.00
2022-12-18T01:03:26.652Z,102128.09
2022-12-18T01:05:52.778Z,102125.16
2022-12-18T01:08:18.975Z,102127.59
2022-12-18T01:10:45.138Z,102135.16
2022-12-18T01:13:11.684Z,102129.03
2022-12-18T01:15:37.811Z,102127.59
2022-12-18T01:18:04.005Z,102123.09
2022-12-18T01:20:30.173Z,102130.06
2022-12-18T01:22:56.382Z,102119.25
2022-12-18T01:25:22.601Z,102121.25
2022-12-18T01:27:48.736Z,102122.69
2022-12-18T01:30:14.826Z,102122.06
2022-12-18T01:32:40.988Z,102121.16
2022-12-18T01:35:07.111Z,102118.63
2022-12-18T01:37:33.251Z,102130.66
2022-12-18T01:39:59.364Z,102136.59
2022-12-18T01:42:25.529Z,102130.97
2022-12-18T01:44:51.689Z,102127.75
2022-12-18T01:47:17.830Z,102115.78
2022-12-18T01:49:44.169Z,102126.88
2022-12-18T01:52:10.375Z,102115.78
2022-12-18T01:54:36.547Z,102125.69
2022-12-18T01:57:02.720Z,102114.94
2022-12-18T01:59:28.869Z,102129.19
2022-12-18T02:01:55.119Z,102141.06
2022-12-18T02:04:21.431Z,102145.44
2022-12-18T02:06:47.586Z,102126.66
2022-12-18T02:09:13.762Z,102115.69
2022-12-18T02:11:39.884Z,102119.03
2022-12-18T02:14:06.055Z,102121.09
2022-12-18T02:16:32.193Z,102123.25
2022-12-18T02:18:58.400Z,102126.72
2022-12-18T02:21:24.526Z,102131.81
2022-12-18T02:23:50.630Z,102132.09
2022-12-18T02:26:16.825Z,102145.13
2022-12-18T02:28:42.951Z,102147.91
2022-12-18T02:31:09.196Z,102138.00
2022-12-18T02:33:35.525Z,102151.53
2022-12-18T02:36:01.864Z,102133.75
2022-12-18T02:38:28.051Z,102140.88
2022-12-18T02:40:54.182Z,102138.00
2022-12-18T02:43:20.339Z,102137.16
2022-12-18T02:45:46.515Z,102131.13
2022-12-18T02:48:12.752Z,102117.81
2022-12-18T02:50:38.933Z,102105.94
2022-12-18T02:53:05.190Z,102116.16
2022-12-18T02:55:31.311Z,102109.75
2022-12-18T02:57:57.478Z,102099.13
2022-12-18T03:00:23.655Z,102115.00
2022-12-18T03:02:49.931Z,102119.31
2022-12-18T03:05:16.188Z,102121.25
2022-12-18T03:07:42.417Z,102126.16
2022-12-18T03:10:08.563Z,102124.00
2022-12-18T03:12:34.686Z,102123.38
2022-12-18T03:15:00.871Z,102123.53
2022-12-18T03:17:27.010Z,102132.00
2022-12-18T03:19:53.151Z,102125.34
2022-12-18T03:22:19.257Z,102122.91
2022-12-18T03:24:45.436Z,102101.50
2022-12-18T03:27:11.616Z,102096.00
2022-12-18T03:29:37.814Z,102103.75
2022-12-18T03:32:03.950Z,102116.97
2022-12-18T03:34:30.083Z,102133.13
2022-12-18T03:36:56.265Z,102132.31
2022-12-18T03:39:22.432Z,102122.97
2022-12-18T03:41:48.632Z,102121.78
2022-12-18T03:44:14.817Z,102116.72
2022-12-18T03:46:40.981Z,102122.91
2022-12-18T03:49:07.167Z,102120.84
2022-12-18T03:51:33.377Z,102119.56
2022-12-18T03:53:59.571Z,102117.28
2022-12-18T03:56:25.714Z,102126.13
2022-12-18T03:58:51.849Z,102127.97
2022-12-18T04:01:18.035Z,102117.69
2022-12-18T04:03:44.766Z,102123.28
2022-12-18T04:06:11.254Z,102121.22
2022-12-18T04:08:37.426Z,102116.88
2022-12-18T04:11:03.619Z,102114.50
2022-12-18T04:13:31.517Z,102123.66
2022-12-18T04:15:57.677Z,102117.81
2022-12-18T04:18:23.885Z,102117.13
2022-12-18T04:20:50.078Z,102111.75
2022-12-18T04:23:16.226Z,102116.81
2022-12-18T04:25:42.337Z,102120.16
2022-12-18T04:28:08.548Z,102111.59
2022-12-18T04:30:34.672Z,102104.97
2022-12-18T04:33:00.825Z,102104.78
2022-12-18T04:35:26.971Z,102106.91
2022-12-18T04:37:53.115Z,102107.72
2022-12-18T04:40:19.376Z,102113.69
2022-12-18T04:42:45.631Z,102105.41
2022-12-18T04:45:11.829Z,102105.06
2022-12-18T04:47:37.952Z,102103.25
2022-12-18T04:50:04.065Z,102097.16
2022-12-18T04:52:30.227Z,102099.78
2022-12-18T04:54:56.399Z,102110.53
2022-12-18T04:57:22.533Z,102111.53
2022-12-18T04:59:48.672Z,102115.19
2022-12-18T05:02:14.887Z,102114.06
2022-12-18T05:04:41.103Z,102120.53
2022-12-18T05:07:07.263Z,102128.78
2022-12-18T05:09:33.450Z,102129.75
2022-12-18T05:11:59.620Z,102125.28
2022-12-18T05:14:25.749Z,102131.72
2022-12-18T05:16:51.881Z,102144.13
2022-12-18T05:19:17.989Z,102136.69
2022-12-18T05:21:44.129Z,102129.91
2022-12-18T05:24:10.376Z,102134.50
2022-12-18T05:26:36.531Z,102148.75
2022-12-18T05:29:02.664Z,102147.69
2022-12-18T05:31:28.931Z,102151.09
2022-12-18T05:33:55.187Z,102135.13
2022-12-18T05:36:21.453Z,102134.00
2022-12-18T05:38:47.578Z,102125.16
2022-12-18T05:41:13.728Z,102130.38
2022-12-18T05:43:40.330Z,102127.69
2022-12-18T05:46:06.880Z,102125.16
2022-12-18T05:48:33.049Z,102132.75
2022-12-18T05:50:59.240Z,102128.13
2022-12-18T05:53:25.369Z,102126.84
2022-12-18T05:55:51.570Z,102122.47
2022-12-18T05:58:17.750Z,102116.28
2022-12-18T06:00:43.902Z,102122.91
2022-12-18T06:03:10.149Z,102130.03
2022-12-18T06:05:36.445Z,102135.28
2022-12-18T06:08:02.631Z,102135.41
2022-12-18T06:10:28.789Z,102129.81
2022-12-18T06:12:54.898Z,102129.75
2022-12-18T06:15:21.070Z,102135.56
2022-12-18T06:17:47.231Z,102144.72
2022-12-18T06:20:13.378Z,102150.97
2022-12-18T06:22:39.597Z,102153.78
2022-12-18T06:25:05.776Z,102143.84
2022-12-18T06:27:32.072Z,102144.63
2022-12-18T06:29:58.364Z,102150.53
2022-12-18T06:32:24.549Z,102155.72
2022-12-18T06:34:50.738Z,102155.88
2022-12-18T06:37:16.897Z,102155.50
2022-12-18T06:39:43.064Z,102159.63
2022-12-18T06:42:09.259Z,102147.94
2022-12-18T06:44:35.370Z,102152.56
2022-12-18T06:47:01.522Z,102138.09
2022-12-18T06:49:30.615Z,102148.09
2022-12-18T06:51:57.023Z,102165.16
2022-12-18T06:54:23.159Z,102177.47
2022-12-18T06:56:50.351Z,102177.47
2022-12-18T06:59:17.147Z,102181.28
2022-12-18T07:01:43.511Z,102182.91
2022-12-18T07:04:09.770Z,102177.13
2022-12-18T07:06:35.935Z,102178.03
2022-12-18T07:09:02.096Z,102172.97
2022-12-18T07:11:28.269Z,102175.84
2022-12-18T07:13:54.394Z,102189.78
2022-12-18T07:16:25.139Z,102193.19
2022-12-18T07:18:52.307Z,102195.63
2022-12-18T07:21:18.466Z,102166.44
2022-12-18T07:23:44.590Z,102198.41
2022-12-18T07:26:10.727Z,102200.88
2022-12-18T07:28:36.889Z,102197.81
2022-12-18T07:31:03.026Z,102208.81
2022-12-18T07:33:29.152Z,102208.91
2022-12-18T07:35:55.493Z,102221.72
2022-12-18T07:38:21.689Z,102209.75
2022-12-18T07:40:47.859Z,102199.03
2022-12-18T07:43:14.006Z,102211.34
2022-12-18T07:45:40.178Z,102212.91
2022-12-18T07:48:06.415Z,102206.19
2022-12-18T07:50:32.534Z,102205.31
2022-12-18T07:52:58.692Z,102205.50
2022-12-18T07:55:24.838Z,102198.72
2022-12-18T07:57:53.314Z,102209.84
2022-12-18T08:00:21.646Z,102211.69
2022-12-18T08:02:47.959Z,102210.31
2022-12-18T08:05:14.876Z,102203.50
2022-12-18T08:07:41.069Z,102204.19
2022-12-18T08:10:07.216Z,102207.50
2022-12-18T08:12:33.460Z,102198.75
2022-12-18T08:14:59.619Z,102205.97
2022-12-18T08:17:25.795Z,102212.34
2022-12-18T08:19:52.001Z,102200.97
2022-12-18T08:22:18.167Z,102199.75
2022-12-18T08:24:44.442Z,102197.94
2022-12-18T08:27:28.974Z,102207.03
2022-12-18T08:29:56.009Z,102212.91
2022-12-18T08:32:22.181Z,102201.91
2022-12-18T08:34:48.403Z,102207.72
2022-12-18T08:37:14.601Z,102197.59
2022-12-18T08:39:40.722Z,102180.94
2022-12-18T08:42:10.049Z,102174.03
2022-12-18T08:44:36.628Z,102176.03
2022-12-18T08:47:02.787Z,102168.66
2022-12-18T08:49:28.925Z,102169.13
2022-12-18T08:51:55.121Z,102159.72
2022-12-18T08:54:21.242Z,102154.38
2022-12-18T08:56:47.370Z,102154.00
2022-12-18T08:59:19.321Z,102133.34
2022-12-18T09:01:46.106Z,102129.59
2022-12-18T09:04:12.349Z,102118.97
2022-12-18T09:06:38.562Z,102119.22
2022-12-18T09:09:05.838Z,102126.38
2022-12-18T09:11:31.958Z,102114.78
2022-12-18T09:13:58.116Z,102114.47
2022-12-18T09:16:28.805Z,102117.88
2022-12-18T09:18:57.781Z,102119.13
2022-12-18T09:21:23.980Z,102121.81
2022-12-18T09:23:50.184Z,102118.84
2022-12-18T09:26:16.324Z,102110.56
2022-12-18T09:28:42.807Z,102119.38
2022-12-18T09:31:09.285Z,102108.31
2022-12-18T09:33:35.517Z,102120.63
2022-12-18T09:36:01.696Z,102123.78
2022-12-18T09:38:27.883Z,102125.28
2022-12-18T09:40:54.034Z,102138.88
2022-12-18T09:43:20.264Z,102137.19
2022-12-18T09:45:46.484Z,102143.06
2022-12-18T09:48:12.679Z,102144.53
2022-12-18T09:50:38.864Z,102148.56
2022-12-18T09:53:05.031Z,102165.09
2022-12-18T09:55:37.211Z,102173.16
2022-12-18T09:58:03.828Z,102171.47
2022-12-18T10:00:29.986Z,102164.28
2022-12-18T10:02:56.272Z,102162.09
2022-12-18T10:05:22.529Z,102158.94
2022-12-18T10:07:48.666Z,102157.31
2022-12-18T10:10:14.822Z,102143.78
2022-12-18T10:12:40.969Z,102138.63
2022-12-18T10:15:07.244Z,102137.81
2022-12-18T10:17:33.412Z,102133.81
2022-12-18T10:19:59.612Z,102135.06
2022-12-18T10:22:25.757Z,102140.84
2022-12-18T10:24:52.413Z,102149.00
2022-12-18T10:27:18.549Z,102151.59
2022-12-18T10:29:44.683Z,102165.16
2022-12-18T10:32:10.828Z,102162.63
2022-12-18T10:34:36.970Z,102150.09
2022-12-18T10:37:03.087Z,102139.41
2022-12-18T10:39:29.263Z,102129.28
2022-12-18T10:41:55.417Z,102132.97
2022-12-18T10:44:21.569Z,102121.53
2022-12-18T10:46:47.772Z,102121.47
2022-12-18T10:49:14.048Z,102112.81
2022-12-18T10:51:40.193Z,102099.56
2022-12-18T10:54:06.607Z,102116.75
2022-12-18T10:56:32.819Z,102120.16
2022-12-18T10:58:58.971Z,102121.44
2022-12-18T11:01:25.253Z,102122.06
2022-12-18T11:03:51.580Z,102125.78
2022-12-18T11:06:17.822Z,102119.88
2022-12-18T11:08:44.452Z,102105.81
2022-12-18T11:11:10.908Z,102106.06
2022-12-18T11:13:37.044Z,102114.66
2022-12-18T11:16:03.215Z,102118.94
2022-12-18T11:18:29.468Z,102115.16
2022-12-18T11:20:58.470Z,102106.03
2022-12-18T11:23:25.111Z,102099.25
2022-12-18T11:25:51.264Z,102116.13
2022-12-18T11:28:17.406Z,102114.81
2022-12-18T11:30:43.584Z,102113.97
2022-12-18T11:33:09.787Z,102113.59
2022-12-18T11:35:35.966Z,102115.66
2022-12-18T11:38:02.137Z,102112.00
2022-12-18T11:40:28.433Z,102115.00
2022-12-18T11:42:54.556Z,102126.63
2022-12-18T11:45:20.742Z,102119.50
2022-12-18T11:47:47.431Z,102110.16
2022-12-18T11:50:13.609Z,102103.94
2022-12-18T11:52:39.769Z,102101.06
2022-12-18T11:55:05.991Z,102092.63
2022-12-18T11:57:32.144Z,102091.66
2022-12-18T11:59:58.290Z,102088.34
2022-12-18T12:02:24.578Z,102093.03
2022-12-18T12:04:50.870Z,102102.31
2022-12-18T12:07:17.134Z,102100.63
2022-12-18T12:09:43.676Z,102094.94
2022-12-18T12:12:09.806Z,102096.13
2022-12-18T12:14:35.935Z,102095.88
2022-12-18T12:17:02.130Z,102102.97
2022-12-18T12:19:28.276Z,102100.00
2022-12-18T12:21:54.416Z,102089.91
2022-12-18T12:24:20.599Z,102051.13
2022-12-18T12:26:46.727Z,102061.16
2022-12-18T12:29:15.503Z,102068.59
2022-12-18T12:31:45.666Z,102073.09
2022-12-18T12:34:14.775Z,102082.97
2022-12-18T12:36:40.897Z,102082.97
2022-12-18T12:39:07.564Z,102081.69
2022-12-18T12:41:33.716Z,102079.16
2022-12-18T12:43:59.857Z,102075.50
2022-12-18T12:46:26.083Z,102076.84
2022-12-18T12:48:52.348Z,102073.75
2022-12-18T12:51:18.651Z,102071.78
2022-12-18T12:53:45.548Z,102065.09
2022-12-18T12:56:12.348Z,102065.22
2022-12-18T12:58:38.783Z,102061.31
2022-12-18T13:01:05.034Z,102059.03
2022-12-18T13:03:32.513Z,102057.34
2022-12-18T13:05:58.701Z,102049.72
2022-12-18T13:08:25.659Z,102040.88
2022-12-18T13:10:51.879Z,102040.16
2022-12-18T13:13:23.125Z,102037.97
2022-12-18T13:15:51.640Z,102021.22
2022-12-18T13:18:18.168Z,102019.47
2022-12-18T13:20:47.895Z,102017.59
2022-12-18T13:23:17.161Z,102019.00
2022-12-18T13:25:44.382Z,102018.81
2022-12-18T13:28:10.770Z,102022.13
2022-12-18T13:30:36.896Z,102017.25
2022-12-18T13:33:03.217Z,102016.22
2022-12-18T13:35:29.412Z,102013.69
2022-12-18T13:37:55.608Z,102006.88
2022-12-18T13:40:21.766Z,102002.78
2022-12-18T13:42:47.921Z,101998.25
2022-12-18T13:45:14.070Z,102005.88
2022-12-18T13:47:40.184Z,101999.03
2022-12-18T13:50:06.543Z,101993.03
2022-12-18T13:52:32.691Z,101999.63
2022-12-18T13:54:59.454Z,101988.44
2022-12-18T13:57:25.628Z,101997.72
2022-12-18T13:59:51.734Z,101999.34
2022-12-18T14:02:18.162Z,101997.50
2022-12-18T14:04:45.053Z,102002.53
2022-12-18T14:07:11.232Z,102000.72
2022-12-18T14:09:40.474Z,102003.34
2022-12-18T14:12:06.775Z,102004.31
2022-12-18T14:14:33.723Z,102016.25
2022-12-18T14:17:00.513Z,102006.84
2022-12-18T14:19:27.080Z,102007.47
2022-12-18T14:21:53.211Z,101998.84
2022-12-18T14:24:19.879Z,102007.31
2022-12-18T14:26:46.165Z,102002.09
2022-12-18T14:29:13.525Z,102003.06
2022-12-18T14:31:39.685Z,101995.31
2022-12-18T14:34:05.854Z,101991.81
2022-12-18T14:36:32.022Z,101986.00
2022-12-18T14:38:58.190Z,101992.72
2022-12-18T14:41:24.331Z,102003.03
2022-12-18T14:43:50.483Z,102005.50
2022-12-18T14:46:16.711Z,102006.00
2022-12-18T14:48:43.355Z,102006.88
2022-12-18T14:51:09.498Z,102007.50
2022-12-18T14:53:35.730Z,102011.63
2022-12-18T14:56:01.890Z,102010.00
2022-12-18T14:58:28.051Z,102002.91
2022-12-18T15:00:55.346Z,102002.78
2022-12-18T15:03:22.592Z,101989.91
2022-12-18T15:05:49.373Z,101987.47
2022-12-18T15:08:15.604Z,101982.31
2022-12-18T15:10:41.815Z,101982.72
2022-12-18T15:13:08.018Z,101980.19
2022-12-18T15:15:34.480Z,101983.41
2022-12-18T15:18:00.844Z,101973.09
2022-12-18T15:20:27.044Z,101980.47
2022-12-18T15:22:53.184Z,101967.59
2022-12-18T15:25:19.361Z,101983.78
2022-12-18T15:27:45.521Z,101966.97
2022-12-18T15:30:11.650Z,101975.47
2022-12-18T15:32:37.899Z,101969.38
2022-12-18T15:35:04.046Z,101972.56
2022-12-18T15:37:30.195Z,101969.00
2022-12-18T15:39:56.376Z,101970.66
2022-12-18T15:42:22.549Z,101969.22
2022-12-18T15:44:48.729Z,101962.41
2022-12-18T15:47:14.949Z,101975.91
2022-12-18T15:49:41.242Z,101973.44
2022-12-18T15:52:07.751Z,101970.91
2022-12-18T15:54:33.927Z,101973.50
2022-12-18T15:57:00.128Z,101972.59
2022-12-18T15:59:26.289Z,101979.66
2022-12-18T16:01:52.538Z,101980.47
2022-12-18T16:04:18.848Z,101978.13
2022-12-18T16:07:13.347Z,101971.25
2022-12-18T16:09:31.144Z,101971.38
2022-12-18T16:11:57.486Z,101968.09
2022-12-18T16:14:23.768Z,101976.03
2022-12-18T16:16:50.150Z,101973.63
2022-12-18T16:19:16.298Z,101979.53
2022-12-18T16:21:42.474Z,101970.97
2022-12-18T16:24:08.656Z,101961.75
2022-12-18T16:26:34.840Z,101962.75
2022-12-18T16:29:01.038Z,101965.41
2022-12-18T16:31:27.259Z,101963.91
2022-12-18T16:33:53.473Z,101968.91
2022-12-18T16:36:19.648Z,101962.78
2022-12-18T16:38:45.938Z,101957.66
2022-12-18T16:41:12.105Z,101952.47
2022-12-18T16:43:38.659Z,101947.31
2022-12-18T16:46:05.093Z,101942.88
2022-12-18T16:48:31.308Z,101938.66
2022-12-18T16:50:57.856Z,101945.25
2022-12-18T16:53:24.049Z,101938.16
2022-12-18T16:55:50.245Z,101942.25
2022-12-18T16:58:16.395Z,101934.41
2022-12-18T17:00:42.507Z,101927.63
2022-12-18T17:03:08.871Z,101939.44
2022-12-18T17:05:35.166Z,101944.44
2022-12-18T17:08:01.302Z,101943.53
2022-12-18T17:10:27.510Z,101945.16
2022-12-18T17:12:53.699Z,101940.06
2022-12-18T17:15:19.827Z,101934.22
2022-12-18T17:17:46.127Z,101934.94
2022-12-18T17:20:12.331Z,101933.16
2022-12-18T17:22:38.470Z,101937.41
2022-12-18T17:25:04.682Z,101929.56
2022-12-18T17:27:30.809Z,101939.25
2022-12-18T17:29:56.927Z,101937.22
2022-12-18T17:32:23.140Z,101933.31
2022-12-18T17:34:49.269Z,101936.78
2022-12-18T17:37:15.464Z,101933.63
2022-12-18T17:39:41.656Z,101921.19
2022-12-18T17:42:07.843Z,101931.41
2022-12-18T17:44:36.756Z,101928.94
2022-12-18T17:47:02.991Z,101929.75
2022-12-18T17:49:29.209Z,101924.03
2022-12-18T17:51:55.404Z,101924.75
2022-12-18T17:54:21.543Z,101915.47
2022-12-18T17:56:47.697Z,101908.84
2022-12-18T17:59:14.219Z,101908.13
2022-12-18T18:01:44.464Z,101915.94
2022-12-18T18:04:11.733Z,101905.78
2022-12-18T18:06:39.020Z,101899.91
2022-12-18T18:09:05.682Z,101905.91
2022-12-18T18:11:34.326Z,101902.53
2022-12-18T18:14:00.619Z,101905.97
2022-12-18T18:16:26.817Z,101902.56
2022-12-18T18:18:52.967Z,101898.28
2022-12-18T18:21:19.110Z,101898.16
2022-12-18T18:23:45.697Z,101894.78
2022-12-18T18:26:13.655Z,101906.72
2022-12-18T18:28:39.881Z,101908.44
2022-12-18T18:31:06.149Z,101904.03
2022-12-18T18:33:32.563Z,101908.25
2022-12-18T18:35:58.690Z,101907.25
2022-12-18T18:38:24.883Z,101907.38
2022-12-18T18:40:51.068Z,101912.50
2022-12-18T18:43:17.207Z,101915.31
2022-12-18T18:45:43.415Z,101910.34
2022-12-18T18:48:11.715Z,101909.78
2022-12-18T18:50:37.919Z,101904.50
2022-12-18T18:53:04.045Z,101900.25
2022-12-18T18:55:30.164Z,101898.44
2022-12-18T18:57:56.318Z,101895.78
2022-12-18T19:00:22.648Z,101895.94
2022-12-18T19:02:49.360Z,101895.94
2022-12-18T19:05:15.665Z,101884.88
2022-12-18T19:07:41.855Z,101872.97
2022-12-18T19:10:08.038Z,101876.34
2022-12-18T19:12:34.187Z,101877.19
2022-12-18T19:15:00.528Z,101875.66
2022-12-18T19:17:29.827Z,101872.97
2022-12-18T19:19:57.687Z,101866.31
2022-12-18T19:22:23.884Z,101863.63
2022-12-18T19:24:50.061Z,101865.22
2022-12-18T19:27:16.226Z,101860.84
2022-12-18T19:29:42.386Z,101858.19
2022-12-18T19:32:09.122Z,101858.25
2022-12-18T19:34:35.269Z,101855.50
2022-12-18T19:37:01.663Z,101859.81
2022-12-18T19:39:28.069Z,101852.22
2022-12-18T19:41:54.495Z,101852.28
2022-12-18T19:44:20.689Z,101854.78
2022-12-18T19:46:46.896Z,101859.88
2022-12-18T19:49:17.277Z,101865.91
2022-12-18T19:51:44.121Z,101870.03
2022-12-18T19:54:16.198Z,101863.13
2022-12-18T19:56:43.613Z,101864.03
2022-12-18T19:59:09.762Z,101850.25
2022-12-18T20:01:35.960Z,101850.16
2022-12-18T20:04:02.665Z,101837.34
2022-12-18T20:06:29.525Z,101831.38
2022-12-18T20:09:00.460Z,101837.41
2022-12-18T20:11:27.239Z,101839.19
2022-12-18T20:13:53.488Z,101822.75
2022-12-18T20:16:19.743Z,101826.16
2022-12-18T20:18:46.071Z,101824.31
2022-12-18T20:21:14.221Z,101836.00
2022-12-18T20:23:40.964Z,101833.50
2022-12-18T20:26:07.797Z,101852.97
2022-12-18T20:28:34.898Z,101842.69
2022-12-18T20:31:01.158Z,101844.78
2022-12-18T20:33:27.603Z,101839.25
2022-12-18T20:35:53.860Z,101833.38
2022-12-18T20:38:22.961Z,101824.91
2022-12-18T20:40:50.934Z,101836.16
2022-12-18T20:43:17.588Z,101829.25
2022-12-18T20:45:43.877Z,101829.97
2022-12-18T20:48:11.984Z,101832.56
2022-12-18T20:50:38.643Z,101842.13
2022-12-18T20:53:04.805Z,101807.03
2022-12-18T20:55:30.990Z,101813.81
2022-12-18T20:57:57.191Z,101825.84
2022-12-18T21:00:23.383Z,101823.34
2022-12-18T21:02:49.628Z,101818.16
2022-12-18T21:05:15.874Z,101807.00
2022-12-18T21:07:42.041Z,101827.44
2022-12-18T21:10:08.188Z,101837.84
2022-12-18T21:12:40.506Z,101842.19
2022-12-18T21:15:10.285Z,101832.91
2022-12-18T21:17:39.454Z,101815.81
2022-12-18T21:20:11.050Z,101830.47
2022-12-18T21:22:42.014Z,101845.88
2022-12-18T21:25:08.173Z,101857.91
2022-12-18T21:27:34.365Z,101843.31
2022-12-18T21:30:00.551Z,101826.38
2022-12-18T21:32:26.724Z,101812.72
2022-12-18T21:34:56.004Z,101805.97
2022-12-18T21:37:22.190Z,101806.81
2022-12-18T21:39:48.318Z,101825.69
2022-12-18T21:42:14.657Z,101830.88
2022-12-18T21:44:41.986Z,101830.94
2022-12-18T21:47:21.926Z,101831.78
2022-12-18T21:49:49.264Z,101823.16
2022-12-18T21:52:29.801Z,101804.63
2022-12-18T21:55:01.872Z,101795.97
2022-12-18T21:57:32.693Z,101810.38
2022-12-18T21:59:58.923Z,101817.22
2022-12-18T22:02:25.316Z,101829.94
2022-12-18T22:04:51.624Z,101834.25
2022-12-18T22:07:18.160Z,101840.03
2022-12-18T22:09:44.292Z,101847.72
2022-12-18T22:12:10.421Z,101852.69
2022-12-18T22:14:36.560Z,101843.19
2022-12-18T22:17:02.682Z,101846.56
2022-12-18T22:19:30.144Z,101847.34
2022-12-18T22:21:56.322Z,101845.47
2022-12-18T22:24:22.492Z,101841.53
2022-12-18T22:26:48.643Z,101828.69
2022-12-18T22:29:14.847Z,101822.88
2022-12-18T22:31:41.052Z,101822.31
2022-12-18T22:34:07.216Z,101817.22
2022-12-18T22:36:33.342Z,101823.13
2022-12-18T22:38:59.520Z,101834.75
2022-12-18T22:41:25.645Z,101843.03
2022-12-18T22:43:52.021Z,101853.31
2022-12-18T22:46:18.234Z,101850.53
2022-12-18T22:48:44.459Z,101849.47
2022-12-18T22:51:10.587Z,101852.03
2022-12-18T22:53:36.888Z,101848.53
2022-12-18T22:56:03.025Z,101852.03
2022-12-18T22:58:29.397Z,101854.59
2022-12-18T23:00:55.558Z,101853.88
2022-12-18T23:03:21.748Z,101857.28
2022-12-18T23:05:47.940Z,101850.81
2022-12-18T23:08:14.066Z,101848.31
2022-12-18T23:10:40.181Z,101835.47
2022-12-18T23:13:06.367Z,101836.47
2022-12-18T23:15:32.515Z,101833.97
2022-12-18T23:17:58.716Z,101828.03
2022-12-18T23:20:24.941Z,101817.97
2022-12-18T23:22:51.123Z,101824.16
2022-12-18T23:25:17.288Z,101835.19
2022-12-18T23:27:43.434Z,101835.44
2022-12-18T23:30:09.578Z,101820.94
2022-12-18T23:32:35.763Z,101813.22
2022-12-18T23:35:02.039Z,101817.66
2022-12-18T23:37:57.131Z,101815.13
2022-12-18T23:40:14.304Z,101814.31
2022-12-18T23:42:40.452Z,101805.94
2022-12-18T23:45:17.368Z,101802.53
2022-12-18T23:47:44.035Z,101809.41
2022-12-18T23:50:12.437Z,101800.91
2022-12-18T23:52:38.775Z,101800.16
2022-12-18T23:55:04.972Z,101798.53
2022-12-18T23:57:31.126Z,101791.66
2022-12-18T23:59:57.358Z,101788.28
